Snook, Texas
Current Conditions -  °F | °C
As of 1:53 AM on Wednesday 26 Nov 2014 (Local Time) from KCLL Reporting Station
Clear Clear  
Wind Chill: 42°   Ceiling: Unl
Heat Index: 46°   Visibility: 10mi
Dew Point: 34°   Wind: 7mph
Humidity: 63%   Direction: 190°S
Pressure: 30.18"   Gusts: NA
Location:  30.49°N, 96.46°W
Report Text: KCLL 260753Z AUTO 19006KT 10SM CLR 08/01 A3018 RMK AO2 SLP218 T00780011
Loading
Personal Weather Stations






























Interactive Weather Map New forecast layout! Learn more

10-Day Weather Forecast

Advertisements
Track Severe Weather on mobile